Tiempo atmosférico en la estación meteorológica de A Coruña, A Coruña (58 m.)



Fecha
DESCASC
Temp. máxima en grados centígrados (hora)
DESCASC
Temp. mínima en grados centígrados (hora)
DESCASC
Temp. media en grados centígrados
DESCASC
Racha de viento máxima en m/sg (hora)
DESCASC
Velocidad máxima media en intervalos de 10 minutos(hora)
DESCASC
Precipitaciones diarias en mm
DESCASC
Precipitaciones de 00:00 a 06:00 en mm
DESCASC
Precipitaciones de 06:00 a 12:00 en mm
DESCASC
Precipitaciones de 12:00 a 18:00 en mm
DESCASC
Precipitaciones de 18:00 a 24:00 en mm
DESCASC
25-01-2020 14.4 (14:10) 6.1 (09:00) 10.2 5 (16:10) 3.06 (09:20) 0 0 0 0 0
24-01-2020 15.2 (14:00) 7.4 (06:20) 11.3 5.28 (04:30) 3.61 (16:10) 0 0 0 0 0
23-01-2020 13.9 (15:40) 6.5 (09:10) 10.2 5.83 (02:30) 3.61 (23:10) 0.2 0.2 0 0 0
22-01-2020 13.2 (12:10) 9.8 (00:00) 11.5 14.17 (14:10) 9.17 (14:10) 0.6 0 0 0 0.6
21-01-2020 10.6 (12:10) 8.5 (00:00) 9.6 15.28 (15:00) 9.72 (15:40) 0 0 0 0 0
20-01-2020 11 (13:40) 8 (00:00) 9.5 21.11 (17:40) 12.5 (16:40) 0 0 0 0 0
19-01-2020 12 (13:50) 9.2 (00:00) 10.6 17.5 (16:30) 10 (16:30) 0.2 0.2 0 0 0
18-01-2020 14.1 (11:30) 10.1 (00:00) 12.1 18.33 (15:50) 9.44 (12:40) 14.8 0.2 4.8 1.6 8.2
17-01-2020 12.9 (14:00) 8.7 (00:00) 10.8 15 (05:30) 6.67 (01:30) 1.8 1.4 0.4 0 0
16-01-2020 16.5 (09:00) 9.8 (00:00) 13.2 18.33 (05:40) 8.33 (05:40) 47 0.2 14.4 30.2 2.2
15-01-2020 15.7 (00:00) 11.1 (00:00) 13.4 20.83 (00:40) 9.44 (03:40) 7.4 6.8 0.6 0 0
14-01-2020 16.3 (15:10) 12.9 (00:00) 14.6 25.28 (15:20) 11.39 (15:10) 0 0 0 0 0
13-01-2020 13 (23:59) 10.3 (00:00) 11.7 18.33 (10:40) 9.17 (14:20) 0.2 0 0 0.2 0
12-01-2020 12.9 (16:30) 6.7 (00:00) 9.8 5 (03:00) 3.61 (03:00) 0 0 0 0 0
11-01-2020 13.5 (13:40) 4.9 (00:00) 9.2 5.28 (16:10) 3.61 (23:50) 0 0 0 0 0
10-01-2020 13.3 (13:10) 7.9 (00:00) 10.6 10.56 (00:40) 6.11 (00:40) 0 0 0 0 0
09-01-2020 15.4 (11:00) 10.4 (00:00) 12.9 15.83 (14:20) 8.61 (12:50) 3 0 1.8 0.8 0.4
08-01-2020 16.4 (16:50) 11.7 (00:00) 14 7.78 (23:20) 4.17 (23:20) 0 0 0 0 0
07-01-2020 14.4 (15:40) 7.1 (00:00) 10.7 5.83 (16:40) 4.17 (18:50) 0 0 0 0 0
06-01-2020 13.6 (15:10) 6.6 (00:00) 10.1 6.11 (12:50) 3.89 (05:00) 0 0 0 0 0
05-01-2020 11.9 (14:30) 4.4 (00:00) 8.1 5.83 (08:20) 3.89 (03:50) 0 0 0 0 0
04-01-2020 13.1 (15:30) 5.7 (00:00) 9.4 4.72 (20:00) 2.78 (04:00) 0 0 0 0 0
03-01-2020 15 (13:40) 9.5 (00:00) 12.3 9.44 (00:30) 3.61 (00:30) 0.2 0.2 0 0 0
02-01-2020 12.3 (14:50) 6.2 (00:00) 9.3 11.39 (15:20) 5.83 (13:50) 0 0 0 0 0
01-01-2020 11.5 (15:10) 6.7 (00:00) 9.1 5.28 (08:10) 3.61 (06:20) 0 0 0 0 0
31-12-2019 12.9 (10:50) 10.2 (00:00) 11.5 5.28 (11:20) 3.89 (11:10) 0.4 0 0.2 0.2 0
30-12-2019 -- (--) -- (--) -- -- (--) -- (--) -- 0 0 0 --
29-12-2019 18.2 (14:50) 9.7 (00:00) 14 6.67 (07:10) 5.28 (07:10) 0 0 0 0 0
28-12-2019 17.4 (15:10) 6.8 (00:00) 12.1 6.11 (10:00) 4.17 (08:30) 0 0 0 0 0

Gráficas

Temp. máximas Temp. mínimas Temp. medias Precipitaciones Rachas de viento máximas Velocidades máximas media en intervalos de 10 minutos

Datos horarios

Fecha y hora oficial Temperatura (ºC) Velocidad del viento (km/h) Dirección del viento Racha (km/h) Dirección de racha Precipitación (mm) Presión (hPa) Tendencia (hPa) Humedad (%)
2020-01-26 23:00:00 13.2 20 Sur 44 Sur 0 1009.6 -1 79
2020-01-26 22:00:00 13.5 15 Sur 48 Sudoeste 0 1010.2 -0.4 75
2020-01-26 21:00:00 12.8 16 Sur 32 Sur 0 1010.3 -0.5 81
2020-01-26 20:00:00 13.2 12 Sudoeste 36 Sudoeste 0 1010.6 -0.3 74
2020-01-26 19:00:00 13.4 18 Sudoeste 41 Sur 0 1010.6 -0.3 73
2020-01-26 18:00:00 13.9 17 Sur 44 Sudoeste 0 1010.8 -0.4 70
2020-01-26 17:00:00 14.2 15 Sur 44 Sudoeste 0 1010.9 -1 69
2020-01-26 16:00:00 14.3 18 Sudoeste 39 Sudoeste 0 1010.9 -1.5 66
2020-01-26 15:00:00 14.4 18 Sudoeste 36 Sur 0 1011.2 -1.6 64
2020-01-26 14:00:00 14.5 18 Sur 45 Sudoeste 0 1011.9 -0.7 64
2020-01-26 13:00:00 13.9 19 Sur 38 Sudoeste 0 1012.4 0.3 68
2020-01-26 12:00:00 13 13 Sur 30 Sudoeste 0 1012.8 0.9 73
2020-01-26 11:00:00 11.8 14 Sur 41 Sur 0 1012.6 0.7 78
2020-01-26 10:00:00 10.6 15 Sur 34 Sur 0 1012.1 0.3 82
2020-01-26 09:00:00 10.1 11 Sur 27 Sudoeste 0 1011.9 0.1 83
2020-01-26 08:00:00 8.9 6 Sur 15 Sur 0 1011.9 0.1 88
2020-01-26 07:00:00 8.5 7 Sur 13 Sur 0 1011.8 0.2 90
2020-01-26 06:00:00 8.8 10 Sur 19 Sur 0 1011.8 0.2 89
2020-01-26 05:00:00 8.6 10 Sur 22 Sur 0 1011.8 0.1 89
2020-01-26 04:00:00 8.4 9 Sur 15 Sur 0 1011.6 0.1 88
2020-01-26 03:00:00 8.7 8 Sur 17 Sur 0 1011.6 0.1 86
2020-01-26 02:00:00 9.1 13 Sur 18 Sur 0 1011.7 0.5 85
2020-01-26 01:00:00 9.4 11 Sur 16 Sur 0 1011.5 0 85
2020-01-26 00:00:00 9.4 9 Sur 14 Sur 0 1011.5 0.4 88
2020-01-25 23:00:00 9.7 10 Sur 13 Sur 0 1011.2 0.6 89
2020-01-25 22:00:00 10.1 7 Sur 9 Sur 0 1011.5 1.7 88
2020-01-25 21:00:00 10.2 4 Sur 7 Oeste 0 1011.1 1.9 88
2020-01-25 20:00:00 10 6 Oeste 8 Oeste 0 1010.6 1.7 88
2020-01-25 19:00:00 10.5 6 Oeste 8 Noroeste 0 1009.8 1 86
2020-01-25 18:00:00 11.4 6 Oeste 15 Oeste 0 1009.2 0.2 82
2020-01-25 17:00:00 11.7 3 Norte 18 Noroeste 0 1008.9 -0.4 78
2020-01-25 16:00:00 12.2 7 Noroeste 15 Oeste 0 1008.8 -1.3 77
2020-01-25 15:00:00 13.7 6 Norte 13 Norte 0 1009 -1.5 70
2020-01-25 14:00:00 14.1 4 Este 9 Este 0 1009.3 -0.8 61
2020-01-25 13:00:00 13.3 7 Este 13 Sudeste 0 1010.1 0.1 63
2020-01-25 12:00:00 11.9 9 Sudeste 13 Sur 0 1010.5 0.8 70
2020-01-25 11:00:00 9.6 7 Sur 13 Sur 0 1010.1 0.6 79
2020-01-25 10:00:00 7.2 9 Sur 14 Sudeste 0 1010 0.8 87
2020-01-25 09:00:00 6.2 6 Sudeste 11 Sudeste 0 1009.7 0.6 91
2020-01-25 08:00:00 6.5 3 Sudeste 12 Sur 0 1009.5 0.3 89
2020-01-25 07:00:00 6.5 0 Calma 6 Sudeste 0 1009.2 -0.1 91
2020-01-25 06:00:00 6.9 2 Este 9 Sur 0 1009.1 -0.6 91
2020-01-25 05:00:00 6.9 2 Sudeste 12 Sudeste 0 1009.2 -0.9 91
2020-01-25 04:00:00 7.6 2 Sudeste 12 Sur 0 1009.3 -1.2 90
2020-01-25 03:00:00 7.9 8 Sur 11 Sur 0 1009.7 -1.1 90
2020-01-25 02:00:00 8.5 7 Sur 11 Sur 0 1010.1 -0.7 90
2020-01-25 01:00:00 9.1 4 Sudeste 8 Sur 0 1010.5 -0.6 89
2020-01-25 00:00:00 10 6 Sur 10 Sur 0 1010.8 -0.5 88
2020-01-24 23:00:00 10.3 3 Sudeste 9 Sur 0 1010.8 -0.6 86
2020-01-24 22:00:00 10.8 4 Sur 5 Sur 0 1011.1 0 84
2020-01-24 21:00:00 11.1 2 Oeste 4 Oeste 0 1011.3 0.6 84
2020-01-24 20:00:00 11.3 4 Oeste 6 Oeste 0 1011.4 0.9 83
2020-01-24 19:00:00 11.9 5 Oeste 13 Noroeste 0 1011.1 0.6 79
2020-01-24 18:00:00 12.6 11 Oeste 15 Oeste 0 1010.7 -0.1 73
2020-01-24 17:00:00 13.4 7 Oeste 18 Oeste 0 1010.5 -0.5 68
2020-01-24 16:00:00 14.1 11 Oeste 19 Oeste 0 1010.5 -1.4 59
2020-01-24 15:00:00 14.4 10 Oeste 17 Noroeste 0 1010.8 -1.5 61
2020-01-24 14:00:00 15 4 Sur 15 Sur 0 1011 -1.2 57
2020-01-24 13:00:00 14.1 7 Sudeste 14 Sudeste 0 1011.9 0.1 61
2020-01-24 12:00:00 11.1 6 Sudeste 13 Sur 0 1012.3 1 67
2020-01-24 11:00:00 8.8 5 Sudeste 15 Sudeste 0 1012.2 1.3 74
2020-01-24 10:00:00 7.8 3 Sudeste 13 Sudeste 0 1011.8 1.3 79
2020-01-24 09:00:00 7.9 9 Sudeste 15 Sudeste 0 1011.3 1 78
2020-01-24 08:00:00 8.2 6 Sudeste 18 Sudeste 0 1010.9 0.6 76
2020-01-24 07:00:00 7.8 11 Sur 16 Sudeste 0 1010.5 -0.1 80
2020-01-24 06:00:00 7.7 5 Sudeste 11 Sur 0 1010.3 -0.4 82
2020-01-24 05:00:00 7.7 5 Sur 19 Sudeste 0 1010.3 -0.4 82
2020-01-24 04:00:00 7.6 4 Sudeste 10 Sudeste 0 1010.6 -0.1 86
2020-01-24 03:00:00 8.3 3 Sudeste 18 Sudeste 0 1010.7 0.2 81
2020-01-24 02:00:00 8.6 6 Sudeste 12 Sur 0 1010.7 0.4 84
2020-01-24 01:00:00 9.1 4 Sudeste 9 Sur 0 1010.7 0.6 84
2020-01-24 00:00:00 9.7 2 Sudeste 15 Sur 0 1010.5 0.6 80
2020-01-23 23:00:00 9.7 7 Sur 12 Sur 0 1010.3 0.9 82
2020-01-23 22:00:00 10.2 4 Este 13 Sur 0 1010.1 1.1 80
2020-01-23 21:00:00 10.8 0 Calma 11 Sudoeste 0 1009.9 1 77
2020-01-23 20:00:00 11.5 9 Sur 12 Sudoeste 0 1009.4 0.9 73
2020-01-23 19:00:00 11.8 5 Sudoeste 9 Nordeste 0 1009 0.3 80
2020-01-23 18:00:00 12.3 6 Norte 11 Norte 0 1008.9 -0.3 78
2020-01-23 17:00:00 12.2 5 Norte 10 Norte 0 1008.5 -1.6 75
2020-01-23 16:00:00 13.3 7 Nordeste 12 Nordeste 0 1008.7 -1.6 63
2020-01-23 15:00:00 13.7 3 Nordeste 9 Este 0 1009.2 -1.8 59
2020-01-23 14:00:00 12.3 3 Nordeste 10 Este 0 1010.1 -0.6 62
2020-01-23 13:00:00 11.4 5 Este 14 Este 0 1010.3 -0.5 69
2020-01-23 12:00:00 9.9 8 Sudeste 15 Sudeste 0 1011 0.8 74
2020-01-23 11:00:00 7.8 8 Sur 12 Sur 0 1010.7 0.8 81
2020-01-23 10:00:00 6.8 5 Sudeste 8 Sudeste 0 1010.8 1.2 89
2020-01-23 09:00:00 6.6 5 Sudeste 11 Sudeste 0 1010.2 0.2 90
2020-01-23 08:00:00 6.7 4 Este 12 Sur 0 1009.9 -0.5 92
2020-01-23 07:00:00 7.1 4 Sudeste 11 Sudeste 0 1009.6 -0.8 92
2020-01-23 06:00:00 7.7 4 Este 10 Sudeste 0 1010 -0.5 90
2020-01-23 05:00:00 7.9 6 Sudeste 12 Sudeste 0 1010.4 -0.3 93
2020-01-23 04:00:00 8.5 6 Sudeste 13 Este 0 1010.4 -0.5 94
2020-01-23 03:00:00 9.5 8 Este 21 Este 0 1010.5 -1 93
2020-01-23 02:00:00 10 9 Este 14 Nordeste 0 1010.7 -1.3 94
2020-01-23 01:00:00 10.2 7 Este 12 Nordeste 0.2 1010.9 -1.5 94
2020-01-23 00:00:00 10.2 8 Nordeste 22 Nordeste 0.6 1011.5 -1.5 93
2020-01-22 23:00:00 10.6 14 Nordeste 30 Norte 0 1012 -1.1 88
2020-01-22 22:00:00 10.8 20 Nordeste 33 Nordeste 0 1012.4 -0.8 85
2020-01-22 21:00:00 11.5 17 Nordeste 29 Nordeste 0 1013 0.1 82
2020-01-22 20:00:00 11.8 16 Nordeste 31 Nordeste 0 1013.1 0.1 79
2020-01-22 19:00:00 12.1 22 Nordeste 37 Nordeste 0 1013.2 -0.3 77
2020-01-22 18:00:00 12.3 26 Nordeste 42 Nordeste 0 1012.9 -1.2 75
2020-01-22 17:00:00 12.7 23 Nordeste 44 Nordeste 0 1013 -2 73
2020-01-22 16:00:00 12.9 30 Nordeste 48 Nordeste 0 1013.5 -2.4 71
2020-01-22 15:00:00 12.8 28 Nordeste 51 Nordeste 0 1014.1 -2.2 71
2020-01-22 14:00:00 12.7 30 Nordeste 45 Nordeste 0 1015 -1.2 74
2020-01-22 13:00:00 12.8 24 Nordeste 46 Nordeste 0 1015.9 -0.5 73
2020-01-22 12:00:00 13 30 Nordeste 49 Nordeste 0 1016.3 -0.2 70
2020-01-22 11:00:00 12.4 30 Nordeste 47 Nordeste 0 1016.2 -0.1 73
2020-01-22 10:00:00 12.2 27 Nordeste 42 Nordeste 0 1016.4 0.2 74
2020-01-22 09:00:00 12.1 26 Nordeste 44 Nordeste 0 1016.5 0.3 74
2020-01-22 08:00:00 12.1 26 Nordeste 47 Nordeste 0 1016.3 -0.7 73
2020-01-22 07:00:00 12.1 22 Nordeste 50 Este 0 1016.2 -1.3 71
2020-01-22 06:00:00 11.8 27 Nordeste 41 Nordeste 0 1016.2 -1.6 74
2020-01-22 05:00:00 11.3 17 Nordeste 30 Este 0 1017 -1.3 76
2020-01-22 04:00:00 10.8 16 Nordeste 30 Nordeste 0 1017.5 -1 77
2020-01-22 03:00:00 10.5 21 Nordeste 36 Nordeste 0 1017.8 -0.9 77
2020-01-22 02:00:00 10.3 22 Nordeste 46 Nordeste 0 1018.3 -1.1 74
2020-01-22 01:00:00 9.9 26 Nordeste 47 Nordeste 0 1018.5 -0.5 75
2020-01-22 00:00:00 9.8 17 Nordeste 31 Nordeste 0 1018.7 -0.3 76
2020-01-21 23:00:00 10 17 Nordeste 49 Nordeste 0 1019.4 0.1 73
2020-01-21 22:00:00 10 25 Este 54 Nordeste 0 1019 0.1 71
2020-01-21 21:00:00 10.1 28 Este 54 Este 0 1019 0.7 73
2020-01-21 20:00:00 10.3 17 Nordeste 46 Nordeste 0 1019.3 0.4 69
2020-01-21 19:00:00 10.1 24 Nordeste 53 Nordeste 0 1018.9 -0.3 68
2020-01-21 18:00:00 9.9 28 Nordeste 44 Nordeste 0 1018.3 -1.7 67
2020-01-21 17:00:00 9.7 28 Nordeste 49 Nordeste 0 1018.9 -2.1 68
2020-01-21 16:00:00 9.8 30 Nordeste 51 Nordeste 0 1019.2 -2.7 67
2020-01-21 15:00:00 9.8 32 Nordeste 55 Nordeste 0 1020 -2.4 67
2020-01-21 14:00:00 9.9 32 Nordeste 52 Nordeste 0 1021 -1.6 67
2020-01-21 13:00:00 9.8 31 Nordeste 46 Nordeste 0 1021.9 -0.6 69
2020-01-21 12:00:00 10.1 32 Este 53 Este 0 1022.4 -0.1 63
2020-01-21 11:00:00 9.3 31 Este 50 Este 0 1022.6 0 72
2020-01-21 10:00:00 9.1 30 Nordeste 45 Nordeste 0 1022.5 0 74
2020-01-21 09:00:00 9.1 28 Nordeste 51 Nordeste 0 1022.5 -0.3 73
2020-01-21 08:00:00 9.1 28 Nordeste 45 Nordeste 0 1022.6 -0.7 71
2020-01-21 07:00:00 9.1 30 Este 46 Este 0 1022.5 -1.3 71
2020-01-21 06:00:00 8.9 26 Nordeste 38 Nordeste 0 1022.8 -1.2 72
2020-01-21 05:00:00 8.8 22 Este 40 Nordeste 0 1023.3 -1 71
2020-01-21 04:00:00 8.6 22 Nordeste 37 Nordeste 0 1023.8 -1.1 71
2020-01-21 03:00:00 8.9 18 Este 41 Este 0 1024 -0.9 67
2020-01-21 02:00:00 8.9 22 Este 49 Nordeste 0 1024.3 -0.8 62
2020-01-21 01:00:00 8.7 19 Este 43 Este 0 1024.9 -0.4 61
2020-01-21 00:00:00 8.5 22 Este 57 Este 0 1024.9 0 59
2020-01-20 23:00:00 8.5 25 Nordeste 43 Nordeste 0 1025.1 0.4 58
2020-01-20 22:00:00 8.4 25 Este 45 Este 0 1025.3 0.8 55
2020-01-20 21:00:00 8.4 28 Nordeste 68 Nordeste 0 1024.9 0.7 55
2020-01-20 20:00:00 8.6 28 Este 61 Este 0 1024.7 0.8 57
2020-01-20 19:00:00 9 32 Este 60 Este 0 1024.5 0.2 59
2020-01-20 18:00:00 9.6 32 Este 76 Este 0 1024.2 -0.9 57
2020-01-20 17:00:00 9.8 38 Nordeste 70 Nordeste 0 1023.9 -2.2 57
2020-01-20 16:00:00 10.3 41 Nordeste 67 Este 0 1024.3 -2.5 53
2020-01-20 15:00:00 10.1 33 Este 58 Este 0 1025.1 -2.7 50
2020-01-20 14:00:00 10.5 34 Nordeste 62 Este 0 1026.1 -1.8 58
2020-01-20 13:00:00 10.1 37 Este 63 Este 0 1026.8 -0.9 51
2020-01-20 12:00:00 9.3 32 Este 58 Este 0 1027.8 -0.1 60
2020-01-20 11:00:00 8.9 29 Nordeste 57 Nordeste 0 1027.9 0.4 67
2020-01-20 10:00:00 8.8 35 Nordeste 60 Este 0 1027.7 0.4 62
2020-01-20 09:00:00 8.1 39 Nordeste 67 Este 0 1027.9 0.8 71
2020-01-20 08:00:00 8.5 23 Nordeste 55 Nordeste 0 1027.5 -0.1 64
2020-01-20 07:00:00 8.8 26 Este 52 Este 0 1027.3 -0.8 64
2020-01-20 06:00:00 9.1 32 Nordeste 62 Este 0 1027.1 -1.7 63
2020-01-20 05:00:00 9.2 27 Nordeste 53 Nordeste 0 1027.6 -1.6 62
2020-01-20 04:00:00 9.3 29 Nordeste 48 Este 0 1028.1 -1.8 59
2020-01-20 03:00:00 9.6 31 Nordeste 59 Este 0 1028.8 -1.1 59
2020-01-20 02:00:00 9.6 36 Nordeste 53 Nordeste 0 1029.2 -0.4 58
2020-01-20 01:00:00 9.5 34 Este 59 Este 0 1029.9 0.4 56
2020-01-20 00:00:00 9.3 28 Este 52 Este 0 1029.9 0.5 61
2020-01-19 23:00:00 9.2 28 Este 56 Este 0 1029.6 0.3 61
2020-01-19 22:00:00 9.2 26 Nordeste 55 Nordeste 0 1029.5 0.6 62
2020-01-19 21:00:00 9.3 33 Este 54 Este 0 1029.4 1 60
2020-01-19 20:00:00 9.2 20 Nordeste 48 Este 0 1029.3 1.4 62
2020-01-19 19:00:00 9.6 29 Este 48 Este 0 1028.9 1.1 59
2020-01-19 18:00:00 10.2 30 Este 50 Este 0 1028.4 1.2 58
2020-01-19 17:00:00 10.6 23 Este 63 Nordeste 0 1027.9 0.2 58
2020-01-19 16:00:00 11.1 33 Nordeste 53 Nordeste 0 1027.8 -0.5 59
2020-01-19 15:00:00 11.7 29 Nordeste 49 Nordeste 0 1027.2 -1 57
2020-01-19 14:00:00 11.7 32 Nordeste 58 Nordeste 0 1027.7 0.1 59
2020-01-19 13:00:00 11.4 29 Nordeste 59 Nordeste 0 1028.3 1.1 63
2020-01-19 12:00:00 11.3 33 Nordeste 53 Nordeste 0 1028.2 1.9 64
2020-01-19 11:00:00 10.9 31 Nordeste 53 Nordeste 0 1027.6 2.4 66
2020-01-19 10:00:00 10.3 31 Nordeste 47 Nordeste 0 1027.2 3 67
2020-01-19 09:00:00 10.1 29 Nordeste 45 Nordeste 0 1026.3 3 69
2020-01-19 08:00:00 10.2 30 Nordeste 50 Nordeste 0 1025.2 2.3 70
2020-01-19 07:00:00 10 23 Nordeste 50 Nordeste 0 1024.2 2.5 81
2020-01-19 06:00:00 10.7 24 Nordeste 39 Nordeste 0 1023.3 2.3 75
2020-01-19 05:00:00 10.5 30 Nordeste 45 Nordeste 0 1022.9 2.6 75
2020-01-19 04:00:00 10.7 27 Nordeste 52 Norte 0 1021.7 2.4 77
2020-01-19 03:00:00 10.8 27 Nordeste 50 Nordeste 0.2 1021 2.7 87
2020-01-19 02:00:00 11.2 24 Nordeste 46 Nordeste 0 1020.3 3.1 89
2020-01-19 01:00:00 11 32 Norte 48 Norte 0 1019.3 3.2 91
2020-01-19 00:00:00 11.1 22 Norte 47 Norte 0.2 1018.3 3.3 83
2020-01-18 23:00:00 11.2 22 Norte 36 Norte 0 1017.2 3.2 85
2020-01-18 22:00:00 11.5 20 Norte 38 Norte 0 1016.1 2.9 83
2020-01-18 21:00:00 11.5 15 Noroeste 28 Norte 0.2 1015 2.3 92
2020-01-18 20:00:00 11 11 Noroeste 32 Oeste 7 1014 1.2 96
2020-01-18 19:00:00 11.1 13 Oeste 52 Sudoeste 0.8 1013.2 0.4 93
2020-01-18 18:00:00 11.7 23 Oeste 49 Oeste 0.4 1012.7 0.6 82
2020-01-18 17:00:00 11.6 18 Oeste 46 Oeste 0 1012.8 0.2 85
2020-01-18 16:00:00 11.2 26 Oeste 66 Oeste 0.8 1012.8 0 84
2020-01-18 15:00:00 13.5 20 Oeste 45 Sudoeste 0 1012.1 -0.1 70
2020-01-18 14:00:00 13.3 19 Oeste 48 Sudoeste 0 1012.6 1.4 74
2020-01-18 13:00:00 12 21 Oeste 55 Oeste 0.4 1012.8 1.7 80
2020-01-18 12:00:00 13.5 24 Oeste 49 Oeste 4.8 1012.2 0.7 91
2020-01-18 11:00:00 13.5 16 Sudoeste 39 Sudoeste 0 1011.2 -0.1 87
2020-01-18 10:00:00 12.4 17 Sur 31 Sur 0 1011.1 -1 83
2020-01-18 09:00:00 11.9 8 Sur 30 Sur 0 1011.5 -2.1 79
2020-01-18 08:00:00 11.8 14 Sur 32 Sur 0 1011.3 -2.9 76
2020-01-18 07:00:00 11.5 12 Sudeste 28 Sudeste 0 1012.1 -3.7 70
2020-01-18 06:00:00 10.9 10 Sudeste 26 Sudeste 0 1013.6 -3.4 68
2020-01-18 05:00:00 10.6 11 Sudeste 21 Sudeste 0 1014.2 -3.6 65
2020-01-18 04:00:00 10.8 10 Sudeste 22 Sudeste 0 1015.8 -2.7 64
2020-01-18 03:00:00 11.2 14 Sudeste 33 Sur 0.2 1017 -2.9 61
2020-01-18 02:00:00 10.6 10 Sudeste 18 Este 0 1017.8 -3.5 68
2020-01-18 01:00:00 10.3 9 Sudeste 25 Sur 0 1018.5 -3.3 70
2020-01-18 00:00:00 10.1 12 Sudeste 22 Sudeste 0 1019.9 -2.4 74
2020-01-17 23:00:00 10.1 11 Sudeste 17 Sudeste 0 1021.3 -1.4 74
2020-01-17 22:00:00 10.1 9 Sur 16 Sur 0 1021.8 -1.2 77
2020-01-17 21:00:00 10.2 7 Sudeste 14 Sudeste 0 1022.3 -0.7 76
2020-01-17 20:00:00 10.5 6 Sudeste 13 Sur 0 1022.7 -0.5 73
2020-01-17 19:00:00 10.6 6 Sur 12 Sudeste 0 1023 -0.3 74
2020-01-17 18:00:00 11 7 Sudeste 13 Sudoeste 0 1023 -0.4 72
2020-01-17 17:00:00 11.2 9 Sudoeste 13 Sudoeste 0 1023.2 -0.3 69
2020-01-17 16:00:00 11.4 9 Sudoeste 21 Oeste 0 1023.3 -0.2 66
2020-01-17 15:00:00 11.9 12 Oeste 27 Sudoeste 0 1023.4 -0.2 69
2020-01-17 14:00:00 12.9 12 Sudoeste 27 Sudoeste 0 1023.5 0.8 65
2020-01-17 13:00:00 12.4 13 Sudoeste 26 Sudoeste 0 1023.5 1.8 66
2020-01-17 12:00:00 11 17 Sudoeste 29 Sudoeste 0 1023.6 2.7 71
2020-01-17 11:00:00 9.3 10 Sudoeste 25 Sudoeste 0 1022.7 3 78
2020-01-17 10:00:00 9.1 12 Sudoeste 28 Sudoeste 0.2 1021.7 2.8 79
2020-01-17 09:00:00 8.8 12 Sudoeste 30 Sudoeste 0 1020.9 2.9 81
2020-01-17 08:00:00 8.9 16 Sudoeste 28 Sudoeste 0.2 1019.7 3.1 82
2020-01-17 07:00:00 9.3 15 Sudoeste 38 Oeste 0 1018.9 2.9 82
2020-01-17 06:00:00 9.4 18 Sudoeste 54 Sudoeste 0.4 1018 2.7 81
2020-01-17 05:00:00 9.9 11 Sudoeste 30 Sudoeste 0.2 1016.6 1.8 81
2020-01-17 04:00:00 10.4 14 Sudoeste 34 Sudoeste 0.2 1016 1.8 81
2020-01-17 03:00:00 10.4 17 Sudoeste 35 Sudoeste 0 1015.3 1.9 79
2020-01-17 02:00:00 10.2 13 Sudoeste 40 Sudoeste 0.2 1014.8 2.1 78
2020-01-17 01:00:00 10.1 13 Oeste 30 Sudoeste 0.4 1014.2 2.9 84
2020-01-17 00:00:00 9.8 15 Sudoeste 44 Sudoeste 2.2 1013.4 2.7 85
2020-01-16 23:00:00 11.3 22 Sudoeste 41 Oeste 0 1012.7 2.6 82
2020-01-16 22:00:00 11.6 24 Sudoeste 38 Sudoeste 0 1011.3 2.4 81
2020-01-16 21:00:00 11.5 10 Sur 30 Sudoeste 0 1010.7 2.7 80
2020-01-16 20:00:00 10.9 11 Sudoeste 25 Sur 0 1010.1 3 83
2020-01-16 19:00:00 11.1 12 Sur 27 Sudoeste 0 1008.9 2.1 86
2020-01-16 18:00:00 11.7 10 Sur 21 Sur 1 1008 2.4 87
2020-01-16 17:00:00 11.7 15 Sudoeste 43 Sudoeste 6.6 1007.1 0 88
2020-01-16 16:00:00 11.3 9 Sudoeste 55 Sudoeste 7.6 1006.8 -0.1 93
2020-01-16 15:00:00 12.9 14 Sur 32 Sudoeste 5 1005.6 -0.8 88
2020-01-16 14:00:00 12.7 15 Sur 47 Sudoeste 5.2 1007.1 0 86
2020-01-16 13:00:00 13.4 24 Sudoeste 64 Sudoeste 4.8 1006.9 0.6 81
2020-01-16 12:00:00 13.8 8 Sur 49 Sudoeste 9.4 1006.4 0.1 92
2020-01-16 11:00:00 15.2 19 Sudoeste 56 Sur 3 1007.1 1.2 83
2020-01-16 10:00:00 15.2 17 Sur 51 Sur 1.8 1006.3 0.6 82
2020-01-16 09:00:00 16.5 22 Sur 58 Sudoeste 0 1006.3 0.4 70
2020-01-16 08:00:00 16 16 Sur 49 Sur 0 1005.9 -0.7 75
2020-01-16 07:00:00 16.3 18 Sur 60 Sudoeste 0.2 1005.7 -1.4 73
2020-01-16 06:00:00 16.2 21 Sur 66 Sur 0 1005.9 -1.2 76
2020-01-16 05:00:00 15.7 23 Sur 44 Sur 0.2 1006.6 -1.5 80
2020-01-16 04:00:00 15.5 16 Sur 38 Sur 0 1007.1 -1.5 85
2020-01-16 03:00:00 14.8 19 Sur 44 Sur 0 1007.1 -2.6 80
2020-01-16 02:00:00 14.9 20 Sur 51 Sur 0 1008.1 -1.4 70
2020-01-16 01:00:00 15 27 Sur 57 Sur 0 1008.6 -1.2 67
2020-01-16 00:00:00 14.6 16 Sur 34 Sudoeste 0 1009.7 -0.9 78
2020-01-15 23:00:00 12.6 4 Sur 14 Sudeste 0 1009.5 -1.6 76
2020-01-15 22:00:00 12.6 8 Sudeste 14 Sudeste 0 1009.8 -1.2 74
2020-01-15 21:00:00 12.1 5 Sudeste 8 Sudeste 0 1010.6 -0.6 78
2020-01-15 20:00:00 12.3 3 Este 10 Sur 0 1011.1 0.2 76
2020-01-15 19:00:00 13 6 Sur 19 Sudoeste 0 1011 0.3 70
2020-01-15 18:00:00 13.7 10 Sudoeste 19 Sur 0 1011.2 0.1 64
2020-01-15 17:00:00 13.2 10 Sur 24 Sudoeste 0 1010.9 -0.4 63
2020-01-15 16:00:00 13.4 5 Oeste 12 Oeste 0 1010.7 -0.7 67
2020-01-15 15:00:00 13.5 8 Oeste 17 Oeste 0 1011.1 -0.5 64
2020-01-15 14:00:00 14.6 5 Sudoeste 14 Sudoeste 0 1011.3 0.4 58
2020-01-15 13:00:00 14.1 8 Sur 18 Oeste 0 1011.4 1.8 57
2020-01-15 12:00:00 13.4 7 Sudoeste 17 Sudoeste 0 1011.6 3.3 67
2020-01-15 11:00:00 11.6 10 Sudoeste 16 Sudoeste 0 1010.9 4.3 75
2020-01-15 10:00:00 11.3 11 Sudoeste 19 Sudoeste 0 1009.6 4.7 82
2020-01-15 09:00:00 11.1 7 Oeste 23 Oeste 0 1008.3 4.9 83
2020-01-15 08:00:00 11.2 12 Oeste 31 Oeste 0 1006.6 4.2 85
2020-01-15 07:00:00 11.5 14 Oeste 35 Sudoeste 0.6 1004.9 4.5 91
2020-01-15 06:00:00 11.6 19 Sudoeste 44 Oeste 1.6 1003.4 4 93
2020-01-15 05:00:00 13.5 26 Oeste 55 Sudoeste 0 1002.4 3.3 82
2020-01-15 04:00:00 14.1 30 Sudoeste 67 Sudoeste 3.6 1000.4 0.2 78
2020-01-15 03:00:00 14.6 21 Sur 57 Sudoeste 0.8 999.4 -1.3 81
2020-01-15 02:00:00 15.1 25 Sur 66 Sudoeste 0.2 999.1 -1.2 72
2020-01-15 01:00:00 14.9 30 Sudoeste 75 Sudoeste 0.6 1000.2 -1 76
2020-01-15 00:00:00 15.7 25 Sudoeste 60 Sudoeste 0 1000.7 -0.7 68
2020-01-14 23:00:00 15 25 Sur 58 Sur 0 1000.3 -1.6 71
2020-01-14 22:00:00 14.5 21 Sur 50 Sur 0 1001.2 -0.8 75
2020-01-14 21:00:00 14.1 23 Sur 54 Sur 0 1001.4 -1 77
2020-01-14 20:00:00 14.6 25 Sur 58 Sur 0 1001.9 -0.4 75
2020-01-14 19:00:00 15 26 Sur 67 Sudoeste 0 1002 -0.2 70
2020-01-14 18:00:00 15.1 29 Sudoeste 70 Sudoeste 0 1002.4 -0.1 73
2020-01-14 17:00:00 15.2 29 Sudoeste 72 Sudoeste 0 1002.3 -0.6 71
2020-01-14 16:00:00 16.3 30 Sudoeste 91 Sudoeste 0 1002.2 -1.5 63
2020-01-14 15:00:00 16.1 33 Sudoeste 73 Sudoeste 0 1002.5 -1.9 62
2020-01-14 14:00:00 15.5 30 Sudoeste 63 Sur 0 1002.9 -1.6 64
2020-01-14 13:00:00 15 26 Sur 71 Sur 0 1003.7 -1.2 67
2020-01-14 12:00:00 14.5 26 Sur 54 Sur 0 1004.4 -0.1 71
2020-01-14 11:00:00 14.1 24 Sur 53 Sur 0 1004.5 0.3 73
2020-01-14 10:00:00 14.2 22 Sur 52 Sur 0 1004.9 0.8 74
2020-01-14 09:00:00 14.2 19 Sur 48 Sur 0 1004.5 0.6 72
2020-01-14 08:00:00 14 26 Sur 59 Sur 0 1004.2 0.1 75
2020-01-14 07:00:00 13.7 25 Sur 53 Sur 0 1004.1 -0.1 79
2020-01-14 06:00:00 13.5 17 Sur 56 Sudoeste 0 1003.9 -0.5 79
2020-01-14 05:00:00 13.4 23 Sur 63 Sudoeste 0 1004.1 -1 78
2020-01-14 04:00:00 13.4 26 Sur 61 Sudoeste 0 1004.2 -1.5 79
2020-01-14 03:00:00 13.3 23 Sur 55 Sur 0 1004.4 -1.6 80
2020-01-14 02:00:00 13.7 24 Sur 62 Sur 0 1005.1 -1.2 78
2020-01-14 01:00:00 13.6 23 Sur 49 Sur 0 1005.7 -0.9 77
2020-01-14 00:00:00 12.9 15 Sur 47 Sudoeste 0 1006 -0.9 82
2020-01-13 23:00:00 12.4 14 Sur 48 Sur 0 1006.3 -0.8 84
2020-01-13 22:00:00 12.1 18 Sur 50 Sur 0 1006.6 -0.7 82
2020-01-13 21:00:00 11.7 23 Sur 63 Sur 0 1006.9 -0.7 82
2020-01-13 20:00:00 11.8 27 Sur 58 Sur 0 1007.1 -0.3 79
2020-01-13 19:00:00 11.4 24 Sur 59 Sur 0 1007.3 -0.8 80
2020-01-13 18:00:00 11.7 25 Sur 59 Sudoeste 0 1007.6 -1.5 76
2020-01-13 17:00:00 12.1 27 Sur 61 Sur 0 1007.4 -2.5 72
2020-01-13 16:00:00 12.4 27 Sur 66 Sudoeste 0 1008.1 -3.1 70
2020-01-13 15:00:00 12.7 28 Sudoeste 62 Sudoeste 0.2 1009.1 -2.6 68
2020-01-13 14:00:00 12.2 27 Sur 63 Sur 0 1009.9 -2.1 69
2020-01-13 13:00:00 12 26 Sudoeste 61 Sur 0 1011.2 -1.4 73
2020-01-13 12:00:00 11.3 27 Sudoeste 63 Sur 0 1011.7 -1.1 78
2020-01-13 11:00:00 10.9 27 Sur 66 Sur 0 1012 -1 78
2020-01-13 10:00:00 10.4 24 Sur 53 Sudoeste 0 1012.6 -1.4 80
2020-01-13 09:00:00 10.6 23 Sur 44 Sudoeste 0 1012.8 -1.9 80
2020-01-13 08:00:00 10.6 19 Sur 37 Sur 0 1013 -2.9 81
2020-01-13 07:00:00 10.8 8 Sur 26 Sur 0 1014 -2.8 80
2020-01-13 06:00:00 10.7 12 Sur 22 Sur 0 1014.7 -2.5 78
2020-01-13 05:00:00 10.9 5 Sur 10 Sur 0 1015.9 -2.1 82
2020-01-13 04:00:00 10.9 6 Sur 14 Sur 0 1016.8 -2.4 82
2020-01-13 03:00:00 11 9 Sur 17 Sur 0 1017.2 -2.8 82
2020-01-13 02:00:00 11.2 5 Sudoeste 10 Sur 0 1018 -2.3 81
2020-01-13 01:00:00 11.2 6 Sudoeste 13 Sur 0 1019.2 -1.3 81
2020-01-13 00:00:00 11.5 6 Sudeste 12 Sur 0 1020 -0.9 81
2020-01-12 23:00:00 11.7 2 Sur 14 Sur 0 1020.3 -0.8 85
2020-01-12 22:00:00 12.1 6 Sur 12 Sudeste 0 1020.5 -0.8 79
2020-01-12 21:00:00 12.2 6 Sudeste 13 Sur 0 1020.9 -0.4 79
2020-01-12 20:00:00 12.2 2 Sudeste 8 Este 0 1021.1 -0.4 89
2020-01-12 19:00:00 12.2 4 Oeste 6 Oeste 0 1021.3 -0.1 91
2020-01-12 18:00:00 12.6 4 Oeste 5 Oeste 0 1021.3 -0.6 86
2020-01-12 17:00:00 12.8 3 Sudeste 10 Sudeste 0 1021.5 -1.2 82
2020-01-12 16:00:00 12.7 5 Sur 11 Sudeste 0 1021.4 -2.2 81
2020-01-12 15:00:00 12.2 8 Sur 15 Sur 0 1021.9 -2.4 87
2020-01-12 14:00:00 12.6 6 Sur 13 Sudoeste 0 1022.7 -1.5 81
2020-01-12 13:00:00 11.7 6 Sur 13 Sur 0 1023.6 -0.2 82
2020-01-12 12:00:00 10.6 5 Sudeste 11 Sudeste 0 1024.3 0.8 86
2020-01-12 11:00:00 9.3 7 Sudeste 13 Sudeste 0 1024.2 0.9 90
2020-01-12 10:00:00 9 8 Sudeste 18 Sudeste 0 1023.8 0.8 84
2020-01-12 09:00:00 8.8 8 Sudeste 15 Sudeste 0 1023.5 0.5 82
2020-01-12 08:00:00 8.5 6 Sudeste 14 Sudeste 0 1023.3 0.2 83
2020-01-12 07:00:00 8.1 12 Sudeste 17 Sudeste 0 1023 -0.2 84
2020-01-12 06:00:00 7.6 7 Sudeste 17 Sur 0 1023 -0.1 86
2020-01-12 05:00:00 7 5 Sur 13 Sudeste 0 1023.1 -0.5 87
2020-01-12 04:00:00 6.9 6 Sudeste 17 Sudeste 0 1023.2 -0.5 86
2020-01-12 03:00:00 7.1 13 Sudeste 18 Sudeste 0 1023.1 -0.8 85
2020-01-12 02:00:00 7.3 8 Sur 16 Sur 0 1023.6 -0.6 83
2020-01-12 01:00:00 8.1 6 Sudeste 15 Sudeste 0 1023.7 -0.5 85
2020-01-12 00:00:00 8.2 8 Sur 17 Sur 0 1023.9 -0.2 82
2020-01-11 23:00:00 8.3 8 Sur 13 Sur 0 1024.2 0.2 80
2020-01-11 22:00:00 9 8 Sur 16 Sur 0 1024.2 0.5 79
2020-01-11 21:00:00 9.6 9 Sudoeste 14 Sudoeste 0 1024.1 0.8 78
2020-01-11 20:00:00 10.4 7 Sur 10 Sur 0 1024 0.9 82
2020-01-11 19:00:00 10.7 4 Sudoeste 8 Sudoeste 0 1023.7 0.8 79
2020-01-11 18:00:00 11.2 4 Oeste 15 Oeste 0 1023.3 0.5 79
2020-01-11 17:00:00 11.7 9 Oeste 19 Oeste 0 1023.1 -0.3 78
2020-01-11 16:00:00 11.7 10 Noroeste 17 Oeste 0 1022.9 -1.4 71
2020-01-11 15:00:00 13.2 8 Noroeste 12 Noroeste 0 1022.8 -2.4 59
2020-01-11 14:00:00 13 6 Nordeste 13 Norte 0 1023.4 -1.6 60
2020-01-11 13:00:00 13.1 4 Nordeste 12 Sur 0 1024.3 -0.4 62
2020-01-11 12:00:00 11.5 3 Sur 16 Sur 0 1025.2 0.9 62
2020-01-11 11:00:00 7.9 9 Sur 17 Sur 0 1025 0.3 75
2020-01-11 10:00:00 6.3 5 Sudeste 15 Sur 0 1024.7 0.2 82
2020-01-11 09:00:00 5.5 6 Sur 13 Sur 0 1024.3 -0.3 85
2020-01-11 08:00:00 4.9 4 Sudeste 10 Sur 0 1024.7 0.1 89
2020-01-11 07:00:00 5.3 4 Sudeste 12 Sudeste 0 1024.5 -0.6 89
2020-01-11 06:00:00 5.3 5 Sudeste 9 Sudeste 0 1024.6 -0.7 90
2020-01-11 05:00:00 5.5 0 Calma 12 Sudeste 0 1024.6 -1 89
2020-01-11 04:00:00 6.3 7 Sudeste 13 Sur 0 1025.1 -1 88
2020-01-11 03:00:00 6.2 4 Sudeste 11 Sur 0 1025.3 -1.2 91
2020-01-11 02:00:00 6.7 4 Sudeste 11 Sur 0 1025.6 -0.9 91
2020-01-11 01:00:00 7.2 3 Sudeste 8 Sudeste 0 1026.1 -0.3 90
2020-01-11 00:00:00 7.9 3 Sudeste 12 Sudeste 0 1026.5 0.2 88
2020-01-10 23:00:00 8.4 5 Sur 9 Sur 0 1026.5 0.5 88
2020-01-10 22:00:00 9.1 2 Sudeste 6 Este 0 1026.4 0.8 84
2020-01-10 21:00:00 9.8 3 Este 7 Nordeste 0 1026.3 0.9 82
2020-01-10 20:00:00 10.6 6 Norte 12 Norte 0 1026 0.8 80
2020-01-10 19:00:00 10.8 8 Norte 12 Norte 0 1025.6 0.5 77
2020-01-10 18:00:00 11.1 6 Noroeste 12 Norte 0 1025.4 0.1 76
2020-01-10 17:00:00 11.2 7 Norte 12 Norte 0 1025.2 -0.6 77
2020-01-10 16:00:00 11.7 6 Norte 11 Norte 0 1025.1 -1.3 72
2020-01-10 15:00:00 12.4 8 Norte 12 Norte 0 1025.3 -1.8 70
2020-01-10 14:00:00 12.9 7 Norte 11 Este 0 1025.8 -0.6 68
2020-01-10 13:00:00 13.1 5 Este 10 Este 0 1026.4 0.4 67
2020-01-10 12:00:00 11.2 4 Sudeste 7 Sur 0 1027.1 1.9 77
2020-01-10 11:00:00 10.2 2 Sur 13 Sur 0 1026.4 1.6 81
2020-01-10 10:00:00 9.2 5 Sudeste 7 Sur 0 1026 1.1 84
2020-01-10 09:00:00 9.6 5 Sur 14 Nordeste 0 1025.2 1.1 81
2020-01-10 08:00:00 10.8 13 Norte 25 Norte 0 1024.8 1.3 72
2020-01-10 07:00:00 10.8 15 Norte 26 Norte 0 1024.9 1.7 75
2020-01-10 06:00:00 10.9 13 Norte 26 Noroeste 0 1024.1 1.3 73
2020-01-10 05:00:00 10.6 19 Norte 34 Norte 0 1023.5 0.7 72
2020-01-10 04:00:00 10.7 11 Noroeste 37 Noroeste 0 1023.2 0.7 76
2020-01-10 03:00:00 10.9 14 Noroeste 35 Noroeste 0 1022.8 0.4 73
2020-01-10 02:00:00 10.9 18 Noroeste 36 Noroeste 0 1022.8 0.7 73
2020-01-10 01:00:00 10.6 21 Oeste 38 Oeste 0 1022.5 0.7 81
2020-01-10 00:00:00 10.4 12 Oeste 42 Oeste 0 1022.4 1.2 74
2020-01-09 23:00:00 10.8 15 Noroeste 47 Noroeste 0 1022.1 1.7 70
2020-01-09 22:00:00 10.7 17 Oeste 52 Oeste 0 1021.8 2.3 72
2020-01-09 21:00:00 11 19 Oeste 33 Oeste 0.2 1021.2 2.3 75
2020-01-09 20:00:00 10.9 21 Oeste 45 Noroeste 0.2 1020.4 1.9 80
2020-01-09 19:00:00 11.9 20 Oeste 44 Oeste 0 1019.5 1.5 71
2020-01-09 18:00:00 11.8 19 Oeste 42 Oeste 0 1018.9 1.6 73
2020-01-09 17:00:00 12.2 19 Oeste 50 Oeste 0 1018.5 1.7 66
2020-01-09 16:00:00 12.6 26 Oeste 55 Oeste 0 1018 2.2 69
2020-01-09 15:00:00 12.5 28 Oeste 57 Oeste 0 1017.3 1.8 74
2020-01-09 14:00:00 11.9 24 Oeste 54 Oeste 0.2 1016.8 2.4 80
2020-01-09 13:00:00 12.6 26 Oeste 55 Oeste 0.6 1015.8 1.5 86
2020-01-09 12:00:00 14.4 26 Sudoeste 55 Sudoeste 1.8 1015.5 1.2 78
2020-01-09 11:00:00 15.4 18 Sudoeste 45 Sudoeste 0 1014.4 -0.1 84
2020-01-09 10:00:00 15 18 Sudoeste 35 Sudoeste 0 1014.3 -0.7 84
2020-01-09 09:00:00 14.6 14 Sur 36 Sur 0 1014.3 -1.1 85
2020-01-09 08:00:00 15 19 Sudoeste 38 Sudoeste 0 1014.5 -1.3 83
2020-01-09 07:00:00 14.8 16 Sur 36 Sur 0 1015 -2 82
2020-01-09 06:00:00 14.4 16 Sudoeste 31 Sudoeste 0 1015.4 -1.9 84
2020-01-09 05:00:00 14.2 9 Sudeste 27 Sur 0 1015.8 -1.6 85
2020-01-09 04:00:00 14 10 Sur 21 Sur 0 1017 -0.8 87
2020-01-09 03:00:00 14.3 9 Sur 24 Sudoeste 0 1017.3 -1.1 86
2020-01-09 02:00:00 14.4 9 Sudoeste 27 Sur 0 1017.4 -1.5 86
2020-01-09 01:00:00 14.4 13 Sur 26 Sur 0 1017.8 -1.5 85
2020-01-09 00:00:00 14.4 13 Sudeste 28 Sur 0 1018.4 -1.3 85
2020-01-08 23:00:00 14.5 13 Sudeste 24 Sur 0 1018.9 -1.2 85
2020-01-08 22:00:00 14.7 12 Sur 20 Sur 0 1019.3 -1.2 84
2020-01-08 21:00:00 14.8 12 Sur 23 Sur 0 1019.7 -0.6 84
2020-01-08 20:00:00 15.2 9 Sur 18 Sur 0 1020.1 -0.1 82
2020-01-08 19:00:00 15.4 5 Sudoeste 14 Sur 0 1020.5 0.1 82
2020-01-08 18:00:00 15.8 8 Sur 17 Sur 0 1020.3 -0.3 81
2020-01-08 17:00:00 16.4 8 Sudeste 21 Sur 0 1020.2 -1 80
2020-01-08 16:00:00 16.2 10 Sur 22 Sudoeste 0 1020.4 -1.7 79
2020-01-08 15:00:00 16.1 8 Sur 21 Sudoeste 0 1020.6 -2.4 81
2020-01-08 14:00:00 15.4 9 Sudeste 19 Sudeste 0 1021.2 -1.9 83
2020-01-08 13:00:00 14.9 11 Sur 21 Sur 0 1022.1 -0.6 85
2020-01-08 12:00:00 14 8 Sur 17 Sur 0 1023 0.5 87
2020-01-08 11:00:00 13.4 9 Sur 18 Sur 0 1023.1 0.7 88
2020-01-08 10:00:00 13.1 12 Sur 18 Sur 0 1022.7 0.5 88
2020-01-08 09:00:00 13 8 Sur 17 Sur 0 1022.5 0.2 88
2020-01-08 08:00:00 13 10 Sur 19 Sur 0 1022.4 0 87
2020-01-08 07:00:00 13 6 Sur 14 Sur 0 1022.2 -0.5 87
2020-01-08 06:00:00 13.1 9 Sur 19 Sur 0 1022.3 -0.7 87
2020-01-08 05:00:00 12.9 12 Sur 21 Sur 0 1022.4 -0.5 88
2020-01-08 04:00:00 12.2 14 Sur 19 Sur 0 1022.7 -0.7 90
2020-01-08 03:00:00 11.7 6 Sudeste 17 Sudeste 0 1023 -0.7 92
2020-01-08 02:00:00 11.8 11 Sudeste 18 Sudeste 0 1022.9 -0.8 92
2020-01-08 01:00:00 12.2 5 Sudeste 14 Sur 0 1023.4 -0.4 91
2020-01-08 00:00:00 12.1 8 Sudeste 12 Sudeste 0 1023.7 -0.1 90
2020-01-07 23:00:00 12.4 7 Sudeste 17 Sudeste 0 1023.7 0 87
2020-01-07 22:00:00 12.5 10 Sudeste 16 Sur 0 1023.8 0.2 86
2020-01-07 21:00:00 12.2 10 Sudeste 17 Sur 0 1023.8 0.3 86
2020-01-07 20:00:00 12.4 11 Sudeste 20 Sur 0 1023.7 0.5 86
2020-01-07 19:00:00 12.8 14 Sur 21 Sur 0 1023.6 0.3 83
2020-01-07 18:00:00 13.4 10 Sur 19 Sudeste 0 1023.5 0 82
2020-01-07 17:00:00 13.6 11 Sur 21 Sur 0 1023.2 -1.1 76
2020-01-07 16:00:00 14.2 11 Sur 16 Sur 0 1023.3 -1.7 72
2020-01-07 15:00:00 13.8 5 Nordeste 10 Oeste 0 1023.5 -2.1 70
2020-01-07 14:00:00 13.6 6 Este 10 Sudeste 0 1024.3 -1.2 70
2020-01-07 13:00:00 12.8 6 Sudeste 14 Sudeste 0 1025 0.3 72
2020-01-07 12:00:00 11.4 5 Sudeste 9 Sudeste 0 1025.6 1.6 73
2020-01-07 11:00:00 8.8 5 Sudeste 8 Sudeste 0 1025.5 1.8 82
2020-01-07 10:00:00 7.9 8 Sur 17 Sur 0 1024.7 1.2 84
2020-01-07 09:00:00 7.3 9 Sudeste 15 Sudeste 0 1024 0.2 86
2020-01-07 08:00:00 7.6 8 Sur 14 Sur 0 1023.7 -0.5 86
2020-01-07 07:00:00 7.4 8 Sur 14 Sur 0 1023.5 -0.8 87
2020-01-07 06:00:00 7.2 5 Sudeste 10 Sur 0 1023.8 -0.3 87
2020-01-07 05:00:00 7.3 3 Sudeste 13 Sur 0 1024.2 0 88
2020-01-07 04:00:00 7.6 5 Sudeste 12 Sur 0 1024.3 0.4 87
2020-01-07 03:00:00 7.6 6 Sudeste 10 Sur 0 1024.1 -0.1 89
2020-01-07 02:00:00 7.9 3 Sudeste 11 Sudeste 0 1024.2 0.1 87
2020-01-07 01:00:00 8.4 4 Sudeste 14 Sur 0 1023.9 0.1 86
2020-01-07 00:00:00 8.7 10 Sudeste 15 Sudeste 0 1024.2 0.3 86
2020-01-06 23:00:00 9.3 5 Sudeste 9 Sudeste 0 1024.1 0.5 85
2020-01-06 22:00:00 9.9 6 Sur 10 Sur 0 1023.8 0.6 83
2020-01-06 21:00:00 10.6 8 Sur 15 Sur 0 1023.9 1 80
2020-01-06 20:00:00 11.6 7 Sur 15 Sur 0 1023.6 1.4 76
2020-01-06 19:00:00 12.1 9 Sur 18 Sur 0 1023.2 1.6 76
2020-01-06 18:00:00 12.6 9 Sur 19 Sur 0 1022.9 1.7 73
2020-01-06 17:00:00 13.1 3 Sudoeste 16 Sur 0 1022.2 1 73
2020-01-06 16:00:00 13.5 6 Oeste 14 Oeste 0 1021.6 -0.2 71
2020-01-06 15:00:00 13.5 4 Sudeste 21 Sur 0 1021.2 -1.6 67
2020-01-06 14:00:00 12.8 10 Sur 20 Sudeste 0 1021.2 -1.3 68
2020-01-06 13:00:00 10.6 10 Sudeste 22 Sudeste 0 1021.8 -0.3 79
2020-01-06 12:00:00 9.9 11 Sudeste 19 Sur 0 1022.8 1.3 80
2020-01-06 11:00:00 9.6 9 Sur 15 Sur 0 1022.5 1.9 80
2020-01-06 10:00:00 8.6 5 Sur 18 Sur 0 1022.1 1.7 83